Enter the Airport ICAO Code

Search by Airport or City

Current Weather

LPPR | Francisco de Sá Carneiro Airport

Porto, Portugal

Last Update 6 Minutes Ago

Partly Cloudy Sky

Temperature of 16 ºC

Light to Moderate Winds from NorthWest

Temperature

16 ºC

Dew Point Temperature

11 ºC

Relative Humidity

72.33 %

Wind Direction

NorthWest (310º, Ranging from 270º to 350º)

Wind Velocity

17 km/h (09 kt)

Gusts

None

Visibility

Greater than 10 Kilometers

Sea Level Pressure

1015 hPa (Hectopascals)

Layers of Clouds

30% to 60% of Sky Covered from 610 mts (2000 ft) Above Ground Level.

METAR LPPR 201700Z 31009KT 270V350 9999 SCT020 16/11 Q1015

Weather Forecast

LPPR | Francisco de Sá Carneiro Airport

Porto, Portugal

Forecast valid for the next 19 Hours

From now on it is expected:

Moderate Winds from NorthWest

In 1 to 3 hours it is expected the begining of:

Mostly Cloudy Sky

Light Winds from Variable Directions

In 10 hours it is expected the begining of 9 hours with intermittent periods of:

Light Drizzle, Mist

In 15 to 17 hours it is expected the begining of:

Moderate Winds from South

Maximum Temperature

No Data

Minimum Temperature

No Data

TAF LPPR 201100Z 2012/2112 28008KT 9999 SCT015 BKN030 BECMG 2012/2014 SCT020 PROB30 TEMPO 2012/2018 5000 RA SCT004 BKN012 BECMG 2015/2017 31010KT BECMG 2018/2020 VRB02KT SCT015 BKN030 TEMPO 2103/2112 5000 -RADZ BR SCT004 BKN008 BECMG 2108/2110 19010KT